aviador You're here:

KEPH Decoded Metar

EPHRATA in WA, USA
Report Time2017-10-17 19:53:00
UTC Time2017-10-17 20:22:17
Flight Rules vfr VFR
Wind230° at 07 kt
W.Decomp.*RWY 21: 7.0 kt HW 0.5 kt RCW
RWY 22: 7.0 kt HW 0.7 kt LCW
RWY 29: 1.7 kt HW 6.8 kt LCW
W.Rank230° ranks 12
Current wind is below 230° avg. (8.4)
Visibility9999 m
Phenomena:N/A
Clouds:Broken 070 Hf
Expected CloudBase > 8,000 ft AGL from Temp-Dew spread
Ceiling7,000 ft
Temp18°C (ISA +5)
Dew Point-2°C (26% RH)
AAT13.2°C
QNH1009 hPa
Density Alt2,113 ft
Elevation1,257 ft
Report Wrong Elevation
Raw Report
KEPH 171953Z AUTO 23007KT 10SM BKN070 18/M02 A2981 RMK AO2
RAB16E39 SLP097 P0000 T01831017=

Extra information for KEPH:More info

Metar Taf Metar & Taf Last 4 Metars F.Rules Stats Wind Profile Meteogram Temp Stats Airport Information Weather charts Add Link Nearby VenuesMetar ALERT Operation Metar Decoded Social comments

AIRNAV info for KEPH